Time;durP1;ratioP1;P1;durP2;ratioP2;P2;SDS_P1;SDS_P2;PMS_P1;PMS_P2;Temp;Humidity;BMP_temperature;BMP_pressure;BME280_temperature;BME280_humidity;BME280_pressure;Samples;Min_cycle;Max_cycle;Signal;HPM_P1;HPM_P2
2023/03/03 00:01:31;;;;;;;72.68;54.47;;;16.00;54.80;;;;;;4923895;28;86966;-59
2023/03/03 00:03:57;;;;;;;73.88;54.75;;;16.00;54.80;;;;;;4936189;28;88294;-59
2023/03/03 00:06:23;;;;;;;74.03;54.50;;;15.90;54.70;;;;;;4927425;28;87518;-60
2023/03/03 00:08:49;;;;;;;75.22;55.10;;;15.90;55.00;;;;;;4933618;28;85589;-59
2023/03/03 00:11:15;;;;;;;73.40;54.75;;;15.90;55.10;;;;;;4934013;28;86609;-54
2023/03/03 00:13:47;;;;;;;72.60;53.83;;;15.90;55.00;;;;;;4936476;28;86584;-59
2023/03/03 00:16:21;;;;;;;;;;;15.80;55.00;;;;;;4936387;28;86697;-59
2023/03/03 00:18:47;;;;;;;71.95;53.78;;;15.80;55.00;;;;;;4940211;28;86669;-59
2023/03/03 00:21:21;;;;;;;74.47;54.45;;;15.70;55.30;;;;;;4932055;28;86090;-59
2023/03/03 00:23:47;;;;;;;73.97;54.58;;;15.70;55.10;;;;;;4938336;28;85755;-58
2023/03/03 00:26:20;;;;;;;72.63;54.25;;;15.70;55.10;;;;;;4931274;28;86420;-59
2023/03/03 00:28:49;;;;;;;72.80;54.33;;;15.70;55.10;;;;;;4936506;28;86297;-60
2023/03/03 00:31:21;;;;;;;71.82;53.97;;;15.70;55.10;;;;;;4932409;28;86555;-59
2023/03/03 00:33:54;;;;;;;73.97;54.55;;;15.60;55.30;;;;;;4937298;28;85825;-59
2023/03/03 00:36:40;;;;;;;73.13;54.70;;;15.60;55.40;;;;;;4936195;28;85228;-52
2023/03/03 00:39:35;;;;;;;74.78;54.78;;;15.60;55.20;;;;;;4932711;28;87806;-59
2023/03/03 00:42:04;;;;;;;73.22;54.13;;;15.50;55.40;;;;;;4931471;28;86820;-60
2023/03/03 00:44:40;;;;;;;72.93;54.33;;;15.50;55.30;;;;;;4927644;28;86007;-60
2023/03/03 00:47:28;;;;;;;73.53;54.75;;;15.50;55.60;;;;;;4925992;28;86800;-60
2023/03/03 00:50:15;;;;;;;71.85;53.70;;;15.40;56.00;;;;;;4925670;28;87459;-59
2023/03/03 00:52:53;;;;;;;72.55;53.70;;;15.40;55.50;;;;;;4935756;28;85789;-59
2023/03/03 00:55:19;;;;;;;73.50;54.97;;;15.40;55.40;;;;;;4935275;28;86619;-56
2023/03/03 00:57:44;;;;;;;71.03;53.92;;;15.40;55.40;;;;;;4938792;28;85777;-59
2023/03/03 01:00:11;;;;;;;73.50;53.90;;;15.40;55.30;;;;;;4936503;28;86237;-59
2023/03/03 01:02:37;;;;;;;74.07;54.92;;;15.30;55.40;;;;;;4931732;28;88784;-56
2023/03/03 01:05:03;;;;;;;71.78;54.05;;;15.30;55.40;;;;;;4935890;28;86461;-60
2023/03/03 01:07:28;;;;;;;72.75;53.50;;;15.30;55.40;;;;;;4932917;28;85360;-60
2023/03/03 01:09:54;;;;;;;72.78;54.10;;;15.30;55.50;;;;;;4928465;28;85880;-60
2023/03/03 01:12:20;;;;;;;73.10;53.80;;;15.20;55.50;;;;;;4930068;28;86425;-59
2023/03/03 01:14:48;;;;;;;73.30;54.20;;;15.20;55.40;;;;;;4935111;28;86978;-58
2023/03/03 01:17:13;;;;;;;72.60;53.33;;;15.10;55.40;;;;;;4947987;28;85473;-60
2023/03/03 01:19:39;;;;;;;71.22;53.40;;;15.20;55.40;;;;;;4933574;28;87265;-60
2023/03/03 01:22:05;;;;;;;70.18;53.13;;;15.20;55.40;;;;;;4933283;28;88498;-59
2023/03/03 01:24:30;;;;;;;72.85;54.47;;;15.20;55.40;;;;;;4936495;28;86061;-60
2023/03/03 01:26:56;;;;;;;70.95;53.15;;;15.20;55.30;;;;;;4931116;28;85263;-59
2023/03/03 01:29:22;;;;;;;70.57;52.95;;;15.10;55.40;;;;;;4933978;28;85124;-60
2023/03/03 01:31:47;;;;;;;71.68;53.45;;;15.10;55.40;;;;;;4941473;28;89895;-55
2023/03/03 01:34:13;;;;;;;71.22;53.28;;;15.10;55.40;;;;;;4940180;28;89193;-59
2023/03/03 01:36:38;;;;;;;70.93;53.17;;;15.10;55.30;;;;;;4929149;28;90149;-60
2023/03/03 01:39:04;;;;;;;71.00;53.67;;;15.10;55.50;;;;;;4927679;28;86775;-58
2023/03/03 01:41:32;;;;;;;71.38;53.85;;;15.10;55.40;;;;;;4926376;28;85620;-58
2023/03/03 01:43:58;;;;;;;71.75;54.05;;;15.10;55.30;;;;;;4924727;28;91240;-59
2023/03/03 01:46:50;;;;;;;70.88;53.38;;;15.10;55.10;;;;;;4933521;28;86203;-59
2023/03/03 01:49:27;;;;;;;72.07;53.75;;;15.00;55.30;;;;;;4927735;28;87996;-59
2023/03/03 01:52:01;;;;;;;71.32;52.88;;;15.00;55.20;;;;;;4932354;28;85682;-59
2023/03/03 01:54:37;;;;;;;72.90;53.83;;;14.90;55.20;;;;;;4926093;28;86750;-57
2023/03/03 01:57:10;;;;;;;72.20;54.35;;;14.90;55.20;;;;;;4938507;28;87410;-60
2023/03/03 01:59:40;;;;;;;70.75;53.42;;;14.90;55.10;;;;;;4931074;28;86335;-60
2023/03/03 02:02:07;;;;;;;70.75;53.70;;;14.90;55.30;;;;;;4936412;28;85574;-60
2023/03/03 02:04:34;;;;;;;71.22;53.72;;;14.90;55.20;;;;;;4918521;28;85935;-59
2023/03/03 02:07:06;;;;;;;70.88;53.75;;;14.80;55.20;;;;;;4931689;28;85823;-59
2023/03/03 02:09:35;;;;;;;;;;;14.70;55.20;;;;;;4934769;28;88747;-60
2023/03/03 02:12:05;;;;;;;69.60;53.35;;;14.80;55.20;;;;;;4939266;28;85273;-59
2023/03/03 02:14:31;;;;;;;70.32;53.13;;;14.80;55.20;;;;;;4931143;28;85737;-59
2023/03/03 02:16:57;;;;;;;70.40;53.55;;;14.70;55.20;;;;;;4937971;28;85885;-57
2023/03/03 02:19:40;;;;;;;69.43;53.05;;;14.70;55.10;;;;;;4936095;28;86079;-60
2023/03/03 02:22:06;;;;;;;70.55;53.15;;;14.70;55.10;;;;;;4928018;28;86602;-58
2023/03/03 02:24:47;;;;;;;70.53;53.60;;;14.70;55.10;;;;;;4939301;28;86853;-60
2023/03/03 02:27:13;;;;;;;70.03;53.30;;;14.60;55.00;;;;;;4954828;28;86302;-60
2023/03/03 02:29:39;;;;;;;71.43;53.30;;;14.60;55.00;;;;;;4936184;28;86838;-61
2023/03/03 02:32:04;;;;;;;71.53;53.80;;;14.60;55.00;;;;;;4933128;28;86122;-59
2023/03/03 02:34:30;;;;;;;70.40;53.35;;;14.60;55.10;;;;;;4941866;28;86514;-59
2023/03/03 02:36:56;;;;;;;69.72;53.10;;;14.50;55.00;;;;;;4928041;28;86341;-57
2023/03/03 02:39:25;;;;;;;70.38;53.10;;;14.60;55.00;;;;;;4942382;28;87349;-61
2023/03/03 02:41:59;;;;;;;70.60;53.30;;;14.60;55.00;;;;;;4925015;28;87730;-58
2023/03/03 02:44:29;;;;;;;70.85;53.40;;;14.60;55.10;;;;;;4931441;28;85662;-59
2023/03/03 02:46:55;;;;;;;69.35;52.60;;;14.50;55.00;;;;;;4925900;28;86191;-60
2023/03/03 02:49:23;;;;;;;71.10;53.83;;;14.50;55.00;;;;;;4928202;28;85129;-60
2023/03/03 02:51:49;;;;;;;69.50;52.80;;;14.50;54.80;;;;;;4925313;28;86422;-60
2023/03/03 02:54:17;;;;;;;70.00;52.92;;;14.50;54.90;;;;;;4923991;28;88080;-55
2023/03/03 02:56:43;;;;;;;70.25;53.03;;;14.50;55.10;;;;;;4930979;28;85578;-59
2023/03/03 02:59:09;;;;;;;69.65;52.72;;;14.40;54.80;;;;;;4932028;28;87112;-59
2023/03/03 03:01:35;;;;;;;69.47;52.85;;;14.50;55.00;;;;;;4927163;28;88268;-60
2023/03/03 03:04:13;;;;;;;70.68;52.97;;;14.40;55.00;;;;;;4928980;28;91865;-60
2023/03/03 03:06:39;;;;;;;71.20;54.03;;;14.40;54.90;;;;;;4930953;28;85508;-60
2023/03/03 03:09:06;;;;;;;70.38;52.92;;;14.40;55.10;;;;;;4930678;28;86070;-54
2023/03/03 03:11:32;;;;;;;69.53;52.78;;;14.30;55.00;;;;;;4932863;28;87922;-60
2023/03/03 03:13:57;;;;;;;70.40;53.25;;;14.40;55.00;;;;;;4927429;28;87342;-59
2023/03/03 03:16:23;;;;;;;69.90;53.03;;;14.40;55.50;;;;;;4922389;28;86406;-59
2023/03/03 03:18:51;;;;;;;70.15;53.28;;;14.40;54.90;;;;;;4932397;28;87803;-60
2023/03/03 03:21:17;;;;;;;69.25;52.70;;;14.30;55.10;;;;;;4925548;28;87318;-60
2023/03/03 03:23:43;;;;;;;68.47;52.55;;;14.30;54.80;;;;;;4929093;28;92924;-59
2023/03/03 03:26:09;;;;;;;70.55;53.47;;;14.40;55.00;;;;;;4926426;28;87640;-59
2023/03/03 03:28:36;;;;;;;70.03;52.92;;;14.30;54.80;;;;;;4926950;28;89476;-58
2023/03/03 03:31:03;;;;;;;70.13;53.40;;;14.30;55.10;;;;;;4919562;28;85755;-57
2023/03/03 03:33:28;;;;;;;71.88;53.78;;;14.30;54.80;;;;;;4928204;28;85357;-59
2023/03/03 03:35:54;;;;;;;68.78;52.40;;;14.30;54.80;;;;;;4922271;28;86272;-60
2023/03/03 03:38:22;;;;;;;71.30;53.15;;;14.30;54.80;;;;;;4921954;28;86884;-59
2023/03/03 03:40:47;;;;;;;71.38;52.97;;;14.30;54.90;;;;;;4928803;28;86219;-59
2023/03/03 03:43:13;;;;;;;69.50;53.42;;;14.20;54.90;;;;;;4925550;28;87077;-52
2023/03/03 03:45:42;;;;;;;70.38;54.05;;;14.20;55.00;;;;;;4925933;28;93915;-58
2023/03/03 03:48:07;;;;;;;70.97;53.65;;;14.20;54.90;;;;;;4926556;28;88067;-57
2023/03/03 03:50:33;;;;;;;69.95;52.67;;;14.10;54.80;;;;;;4926216;28;87556;-59
2023/03/03 03:52:59;;;;;;;70.70;53.70;;;14.10;55.00;;;;;;4933400;28;85840;-58
2023/03/03 03:55:25;;;;;;;70.35;53.97;;;14.10;54.90;;;;;;4926234;28;86067;-57
2023/03/03 03:57:50;;;;;;;72.22;54.30;;;14.10;55.20;;;;;;4928694;28;85586;-58
2023/03/03 04:00:16;;;;;;;70.93;53.92;;;14.10;55.20;;;;;;4930217;28;88021;-57
2023/03/03 04:02:42;;;;;;;70.40;52.85;;;14.10;55.10;;;;;;4936918;28;85860;-58
2023/03/03 04:05:08;;;;;;;70.70;54.15;;;14.00;55.10;;;;;;4930402;28;87049;-59
2023/03/03 04:07:34;;;;;;;72.68;54.50;;;14.00;55.00;;;;;;4917070;28;85538;-58
2023/03/03 04:10:00;;;;;;;69.95;52.97;;;14.10;55.10;;;;;;4928530;28;91845;-57
2023/03/03 04:12:25;;;;;;;72.00;54.92;;;14.00;55.10;;;;;;4938775;28;85727;-58
2023/03/03 04:14:51;;;;;;;68.28;52.85;;;14.00;55.10;;;;;;4923740;28;85659;-59
2023/03/03 04:17:18;;;;;;;70.47;53.60;;;14.00;55.20;;;;;;4927056;28;86210;-58
2023/03/03 04:19:44;;;;;;;69.63;53.45;;;13.90;55.20;;;;;;4929961;28;85907;-60
2023/03/03 04:22:12;;;;;;;71.43;53.95;;;13.90;55.10;;;;;;4930621;28;88161;-59
2023/03/03 04:24:38;;;;;;;72.15;54.38;;;13.80;55.10;;;;;;4937541;28;85130;-59
2023/03/03 04:27:04;;;;;;;70.28;54.40;;;13.90;55.40;;;;;;4924686;28;85411;-59
2023/03/03 04:29:30;;;;;;;70.47;53.85;;;13.90;55.20;;;;;;4931111;28;86793;-58
2023/03/03 04:31:55;;;;;;;72.70;54.75;;;13.90;55.20;;;;;;4930238;28;85607;-59
2023/03/03 04:34:21;;;;;;;73.18;54.42;;;13.90;55.40;;;;;;4925280;28;86965;-59
2023/03/03 04:36:47;;;;;;;70.03;53.80;;;13.90;55.20;;;;;;4929343;28;85889;-59
2023/03/03 04:39:12;;;;;;;70.60;53.58;;;13.90;55.40;;;;;;4957207;28;91843;-58
2023/03/03 04:41:38;;;;;;;68.55;53.65;;;13.90;55.30;;;;;;4918614;28;86620;-59
2023/03/03 04:44:04;;;;;;;70.70;54.03;;;13.90;55.30;;;;;;4927193;28;86702;-58
2023/03/03 04:46:29;;;;;;;73.13;54.75;;;13.90;55.20;;;;;;4926755;28;86058;-56
2023/03/03 04:48:55;;;;;;;73.45;54.65;;;13.90;55.40;;;;;;4935937;28;88144;-57
2023/03/03 04:51:22;;;;;;;73.88;55.88;;;13.80;55.20;;;;;;4937022;28;87010;-58
2023/03/03 04:53:47;;;;;;;72.00;53.90;;;13.90;55.30;;;;;;4945282;28;85468;-54
2023/03/03 04:56:13;;;;;;;70.82;54.80;;;13.80;55.20;;;;;;4927429;28;92076;-58
2023/03/03 04:58:40;;;;;;;71.38;54.65;;;13.80;55.30;;;;;;4927089;28;86301;-57
2023/03/03 05:01:05;;;;;;;71.80;55.47;;;13.90;55.30;;;;;;4933922;28;87547;-58
2023/03/03 05:03:31;;;;;;;70.85;54.42;;;13.80;55.30;;;;;;4930043;28;86210;-58
2023/03/03 05:05:57;;;;;;;72.13;55.05;;;13.80;55.20;;;;;;4932754;28;86850;-58
2023/03/03 05:08:23;;;;;;;72.22;55.38;;;13.80;55.40;;;;;;4926942;28;86812;-59
2023/03/03 05:10:54;;;;;;;72.63;55.40;;;13.80;55.20;;;;;;4930222;28;87883;-58
2023/03/03 05:13:20;;;;;;;72.50;54.33;;;13.80;55.30;;;;;;4938672;28;87268;-58
2023/03/03 05:15:50;;;;;;;70.53;54.22;;;13.80;55.20;;;;;;4930801;28;87672;-58
2023/03/03 05:18:18;;;;;;;72.35;55.05;;;13.70;55.20;;;;;;4926117;28;86097;-58
2023/03/03 05:20:44;;;;;;;73.35;55.33;;;13.70;55.40;;;;;;4937024;28;86953;-58
2023/03/03 05:23:10;;;;;;;70.07;54.10;;;13.70;55.10;;;;;;4935923;28;87262;-56
2023/03/03 05:25:35;;;;;;;74.13;55.50;;;13.70;55.30;;;;;;4932588;28;87643;-58
2023/03/03 05:28:01;;;;;;;69.22;53.95;;;13.70;55.40;;;;;;4925900;28;86563;-58
2023/03/03 05:30:27;;;;;;;72.75;55.00;;;13.70;55.40;;;;;;4934827;28;85843;-57
2023/03/03 05:32:52;;;;;;;72.05;54.47;;;13.60;55.30;;;;;;4934540;28;86984;-59
2023/03/03 05:35:19;;;;;;;71.32;54.85;;;13.60;55.40;;;;;;4927755;28;85888;-57
2023/03/03 05:37:46;;;;;;;71.75;54.88;;;13.60;55.50;;;;;;4931282;28;86609;-58
2023/03/03 05:40:13;;;;;;;72.70;55.50;;;13.60;55.50;;;;;;4938465;28;86157;-59
2023/03/03 05:42:39;;;;;;;71.78;54.83;;;13.60;55.50;;;;;;4938908;28;85974;-58
2023/03/03 05:45:05;;;;;;;72.35;54.97;;;13.50;56.20;;;;;;4931948;28;86003;-59
2023/03/03 05:47:31;;;;;;;72.50;54.92;;;13.50;55.50;;;;;;4935639;28;88568;-59
2023/03/03 05:49:56;;;;;;;73.82;55.35;;;13.50;55.60;;;;;;4922321;28;91959;-59
2023/03/03 05:52:23;;;;;;;72.30;54.92;;;13.50;55.60;;;;;;4921128;28;91042;-58
2023/03/03 05:54:52;;;;;;;71.07;54.42;;;13.50;55.60;;;;;;4943077;28;86549;-58
2023/03/03 05:57:18;;;;;;;70.88;54.40;;;13.50;55.50;;;;;;4933062;28;86404;-58
2023/03/03 05:59:43;;;;;;;70.30;54.28;;;13.50;55.40;;;;;;4929916;28;87429;-55
2023/03/03 06:02:09;;;;;;;70.07;53.42;;;13.50;55.80;;;;;;4923908;28;87273;-59
2023/03/03 06:04:35;;;;;;;70.22;54.35;;;13.50;55.80;;;;;;4922647;28;85976;-51
2023/03/03 06:07:01;;;;;;;74.50;55.47;;;13.50;55.70;;;;;;4936243;28;86198;-59
2023/03/03 06:09:26;;;;;;;72.70;54.72;;;13.50;55.70;;;;;;4928185;28;87157;-54
2023/03/03 06:11:52;;;;;;;73.70;54.92;;;13.50;55.90;;;;;;4934463;28;88766;-57
2023/03/03 06:14:19;;;;;;;70.75;54.00;;;13.50;55.90;;;;;;4932112;28;87680;-55
2023/03/03 06:16:46;;;;;;;70.55;54.10;;;13.50;55.70;;;;;;4965738;28;89939;-55
2023/03/03 06:19:13;;;;;;;71.10;54.92;;;13.50;55.80;;;;;;4921462;28;86888;-57
2023/03/03 06:21:39;;;;;;;68.90;53.47;;;13.40;55.60;;;;;;4922782;28;87618;-58
2023/03/03 06:24:05;;;;;;;68.65;53.20;;;13.40;55.70;;;;;;4939511;28;86046;-58
2023/03/03 06:26:32;;;;;;;70.47;53.53;;;13.40;55.80;;;;;;4931297;28;86664;-57
2023/03/03 06:28:58;;;;;;;68.07;53.05;;;13.40;55.80;;;;;;4926812;28;87223;-57
2023/03/03 06:31:25;;;;;;;68.82;53.08;;;13.40;55.90;;;;;;4927201;28;87018;-55
2023/03/03 06:33:51;;;;;;;70.18;53.95;;;13.40;55.90;;;;;;4920186;28;89828;-58
2023/03/03 06:36:17;;;;;;;71.25;53.33;;;13.30;55.80;;;;;;4930358;28;89657;-57
2023/03/03 06:38:43;;;;;;;72.82;53.28;;;13.30;55.90;;;;;;4930072;28;85504;-57
2023/03/03 06:41:09;;;;;;;68.57;53.03;;;13.40;55.80;;;;;;4939245;28;86231;-58
2023/03/03 06:43:36;;;;;;;68.57;52.25;;;13.40;55.80;;;;;;4932824;28;87792;-57
2023/03/03 06:46:03;;;;;;;68.43;52.95;;;13.30;55.60;;;;;;4926684;28;86279;-57
2023/03/03 06:48:30;;;;;;;68.47;53.28;;;13.30;55.90;;;;;;4926748;28;86293;-58
2023/03/03 06:50:56;;;;;;;69.45;52.95;;;13.30;56.00;;;;;;4935534;28;85518;-58
2023/03/03 06:53:21;;;;;;;67.57;52.78;;;13.30;55.80;;;;;;4936107;28;89423;-56
2023/03/03 06:55:47;;;;;;;66.90;52.50;;;13.30;55.90;;;;;;4929837;28;89324;-57
2023/03/03 06:58:16;;;;;;;67.95;52.65;;;13.30;56.00;;;;;;4935779;28;88770;-59
2023/03/03 07:00:44;;;;;;;69.05;52.65;;;13.30;55.80;;;;;;4930484;28;88145;-58
2023/03/03 07:03:17;;;;;;;67.78;52.10;;;13.30;55.90;;;;;;4927722;28;86188;-57
2023/03/03 07:05:43;;;;;;;68.05;53.08;;;13.40;55.80;;;;;;4920393;28;86717;-59
2023/03/03 07:08:18;;;;;;;66.80;52.13;;;13.40;55.70;;;;;;4925094;28;88033;-58
2023/03/03 07:10:44;;;;;;;66.70;52.42;;;13.40;55.70;;;;;;4932931;28;85951;-57
2023/03/03 07:13:28;;;;;;;66.90;52.13;;;13.40;55.80;;;;;;4934461;28;87872;-57
2023/03/03 07:16:00;;;;;;;68.95;52.28;;;13.40;55.80;;;;;;4936762;28;88388;-54
2023/03/03 07:19:11;;;;;;;66.03;51.80;;;13.40;55.50;;;;;;4933498;28;87398;-57
2023/03/03 07:21:37;;;;;;;65.88;51.47;;;13.40;55.60;;;;;;4924502;28;86712;-56
2023/03/03 07:24:27;;;;;;;64.55;51.15;;;13.40;55.60;;;;;;4929914;28;85624;-59
2023/03/03 07:27:06;;;;;;;67.72;52.17;;;13.40;55.60;;;;;;4926195;28;93154;-58
2023/03/03 07:29:33;;;;;;;65.35;51.20;;;13.40;55.50;;;;;;4925996;28;89239;-58
2023/03/03 07:32:00;;;;;;;67.55;51.78;;;13.40;55.50;;;;;;4938681;28;86300;-52
2023/03/03 07:34:37;;;;;;;66.43;50.58;;;13.50;55.40;;;;;;4931043;28;86759;-58
2023/03/03 07:37:20;;;;;;;64.85;51.10;;;13.50;55.60;;;;;;4943412;28;86078;-58
2023/03/03 07:39:48;;;;;;;66.72;51.17;;;13.40;55.50;;;;;;4939952;28;88324;-57
2023/03/03 07:42:21;;;;;;;64.25;50.90;;;13.40;55.30;;;;;;4941689;28;88736;-58
2023/03/03 07:44:53;;;;;;;65.38;51.25;;;13.50;55.40;;;;;;4929940;28;87898;-56
2023/03/03 07:47:34;;;;;;;65.35;50.95;;;13.40;55.40;;;;;;4934783;28;87430;-55
2023/03/03 07:50:06;;;;;;;67.00;51.37;;;13.50;55.30;;;;;;4930273;28;86626;-57
2023/03/03 07:52:40;;;;;;;65.80;51.38;;;13.50;55.10;;;;;;4934225;28;88280;-58
2023/03/03 07:55:30;;;;;;;66.43;51.63;;;13.50;55.10;;;;;;4931049;28;85992;-57
2023/03/03 07:58:16;;;;;;;67.45;51.13;;;13.50;54.90;;;;;;4938066;28;89921;-58
2023/03/03 08:00:44;;;;;;;67.63;51.78;;;13.50;55.20;;;;;;4929922;28;86386;-58
2023/03/03 08:03:18;;;;;;;66.78;51.22;;;13.60;55.00;;;;;;4930415;28;85493;-53
2023/03/03 08:05:46;;;;;;;64.20;50.33;;;13.60;55.00;;;;;;4938328;28;85646;-58
2023/03/03 08:08:25;;;;;;;66.97;51.55;;;13.70;55.10;;;;;;4936603;28;86637;-56
2023/03/03 08:10:56;;;;;;;65.35;51.50;;;13.70;54.80;;;;;;4933548;28;90513;-57
2023/03/03 08:13:23;;;;;;;71.10;54.00;;;13.60;54.70;;;;;;4937933;28;86812;-58
2023/03/03 08:15:51;;;;;;;69.40;53.15;;;13.60;54.70;;;;;;4939632;28;88868;-55
2023/03/03 08:18:32;;;;;;;71.43;53.45;;;13.60;54.80;;;;;;4932444;28;86961;-57
2023/03/03 08:20:59;;;;;;;70.43;53.67;;;13.60;54.90;;;;;;4926898;28;86288;-57
2023/03/03 08:23:26;;;;;;;73.10;54.42;;;13.60;54.80;;;;;;4936138;28;85571;-55
2023/03/03 08:25:52;;;;;;;71.72;54.72;;;13.60;54.70;;;;;;4930373;28;87049;-53
2023/03/03 08:28:18;;;;;;;68.38;51.85;;;13.60;55.00;;;;;;4933402;28;87848;-58
2023/03/03 08:30:45;;;;;;;72.88;54.38;;;13.60;55.20;;;;;;4925129;28;87103;-58
2023/03/03 08:33:11;;;;;;;73.95;54.55;;;13.60;55.30;;;;;;4923719;28;86121;-57
2023/03/03 08:35:37;;;;;;;70.15;53.28;;;13.70;55.40;;;;;;4937496;28;86040;-58
2023/03/03 08:38:03;;;;;;;71.68;51.88;;;13.70;55.60;;;;;;4926740;28;86978;-56
2023/03/03 08:40:29;;;;;;;71.75;54.10;;;13.70;55.60;;;;;;4925362;28;90182;-57
2023/03/03 08:42:57;;;;;;;70.93;53.15;;;13.80;55.80;;;;;;4920825;28;86611;-55
2023/03/03 08:45:23;;;;;;;74.10;54.45;;;13.80;55.90;;;;;;4919748;28;91766;-58
2023/03/03 08:47:49;;;;;;;73.07;54.03;;;13.80;55.70;;;;;;4922817;28;86897;-54
2023/03/03 08:50:15;;;;;;;68.20;52.40;;;13.80;55.90;;;;;;4925904;28;89200;-59
2023/03/03 08:52:41;;;;;;;74.43;54.38;;;13.80;55.60;;;;;;4935616;28;87712;-56
2023/03/03 08:55:07;;;;;;;74.68;54.00;;;13.70;55.60;;;;;;4930990;28;87476;-58
2023/03/03 08:57:33;;;;;;;72.75;53.83;;;13.80;55.60;;;;;;4918251;28;86532;-58
2023/03/03 08:59:59;;;;;;;76.15;55.50;;;13.70;56.20;;;;;;4917830;28;85783;-56
2023/03/03 09:02:25;;;;;;;76.60;54.63;;;13.70;56.50;;;;;;4927074;28;86775;-58
2023/03/03 09:04:50;;;;;;;77.20;54.33;;;13.80;57.20;;;;;;4921711;28;86144;-58
2023/03/03 09:07:16;;;;;;;82.55;56.30;;;14.10;56.40;;;;;;4912620;28;87094;-53
2023/03/03 09:09:42;;;;;;;76.72;54.90;;;14.30;55.80;;;;;;4920997;28;92487;-55
2023/03/03 09:12:35;;;;;;;79.18;55.72;;;14.30;55.90;;;;;;4931326;28;86349;-58
2023/03/03 09:15:25;;;;;;;80.30;54.95;;;14.30;56.80;;;;;;4920104;28;87060;-58
2023/03/03 09:17:52;;;;;;;79.20;55.17;;;14.40;56.60;;;;;;4918022;28;86850;-62
2023/03/03 09:20:21;;;;;;;77.07;55.10;;;14.60;56.70;;;;;;4925321;28;87037;-57
2023/03/03 09:22:47;;;;;;;79.57;55.05;;;14.80;56.30;;;;;;4924281;28;86452;-58
2023/03/03 09:25:33;;;;;;;85.93;55.20;;;15.00;56.00;;;;;;4933515;28;86838;-54
2023/03/03 09:30:49;;;;;;;76.20;54.90;;;15.20;55.10;;;;;;4976436;28;89088;-58
2023/03/03 09:33:41;;;;;;;76.55;54.45;;;15.20;55.30;;;;;;4963712;28;91101;-59
2023/03/03 09:36:27;;;;;;;78.80;55.00;;;15.20;55.00;;;;;;4954469;28;86252;-58
2023/03/03 09:38:55;;;;;;;81.55;56.53;;;15.20;54.90;;;;;;4967393;28;87469;-59
2023/03/03 09:41:32;;;;;;;77.32;54.50;;;15.20;55.10;;;;;;4961379;28;86706;-56
2023/03/03 09:44:17;;;;;;;77.80;54.70;;;15.20;55.20;;;;;;4957019;28;88686;-58
2023/03/03 09:47:06;;;;;;;77.38;54.45;;;15.20;55.10;;;;;;4955514;28;86580;-59
2023/03/03 09:50:17;;;;;;;83.28;54.78;;;15.20;55.00;;;;;;4955935;28;86696;-58
2023/03/03 09:53:04;;;;;;;76.47;55.37;;;15.30;55.10;;;;;;4951378;28;86093;-59
2023/03/03 09:55:36;;;;;;;72.85;54.17;;;15.40;54.90;;;;;;4954171;28;88518;-56
2023/03/03 09:58:01;;;;;;;;;;;15.50;54.90;;;;;;4954951;28;86809;-59
2023/03/03 10:00:36;;;;;;;78.93;54.72;;;15.50;54.60;;;;;;4961589;28;84507;-53
2023/03/03 10:03:45;;;;;;;78.22;55.58;;;15.60;55.20;;;;;;4959817;28;92768;-55
2023/03/03 10:06:17;;;;;;;78.45;54.72;;;15.30;55.20;;;;;;4956659;28;86332;-48
2023/03/03 10:08:51;;;;;;;;;;;15.30;55.40;;;;;;4962132;28;92071;-56
2023/03/03 10:11:29;;;;;;;78.03;55.28;;;15.40;55.10;;;;;;4956774;28;87772;-55
2023/03/03 10:14:19;;;;;;;79.45;56.08;;;15.40;55.00;;;;;;4942665;28;86561;-55
2023/03/03 10:16:57;;;;;;;78.35;56.55;;;15.40;55.00;;;;;;4947049;28;89879;-56
2023/03/03 10:19:45;;;;;;;77.85;55.97;;;15.50;55.00;;;;;;4949434;28;88852;-55
2023/03/03 10:22:40;;;;;;;78.75;55.40;;;15.50;54.50;;;;;;4958669;28;88961;-56
2023/03/03 10:25:24;;;;;;;76.57;55.72;;;15.60;55.00;;;;;;4952122;28;91629;-57
2023/03/03 10:28:00;;;;;;;76.88;57.03;;;15.40;55.10;;;;;;4965607;28;87825;-54
2023/03/03 10:30:44;;;;;;;79.88;56.70;;;15.40;54.80;;;;;;4950732;28;88014;-54
2023/03/03 10:33:36;;;;;;;82.70;57.25;;;15.40;54.20;;;;;;4957439;28;88059;-55
2023/03/03 10:36:40;;;;;;;78.47;56.85;;;15.20;54.90;;;;;;4946565;28;89516;-56
2023/03/03 10:39:30;;;;;;;79.13;56.38;;;15.10;55.70;;;;;;4965668;28;85858;-53
2023/03/03 10:42:12;;;;;;;76.60;56.63;;;15.20;56.00;;;;;;4939333;28;85977;-54
2023/03/03 10:44:55;;;;;;;79.53;55.88;;;15.40;57.80;;;;;;4945103;28;86752;-56
2023/03/03 10:47:27;;;;;;;80.82;56.92;;;15.50;57.40;;;;;;4939920;28;88275;-53
2023/03/03 10:50:03;;;;;;;86.05;56.63;;;15.70;56.50;;;;;;4942319;28;88828;-52
2023/03/03 10:52:47;;;;;;;83.40;55.25;;;15.80;56.50;;;;;;4943609;28;86049;-56
2023/03/03 10:55:12;;;;;;;79.15;55.63;;;15.90;56.40;;;;;;4942641;28;85617;-54
2023/03/03 10:58:04;;;;;;;76.47;56.10;;;15.90;56.10;;;;;;4937761;28;86698;-56
2023/03/03 11:00:43;;;;;;;;;;;16.10;55.70;;;;;;4945987;28;87317;-57
2023/03/03 11:03:35;;;;;;;77.32;56.58;;;16.20;55.20;;;;;;4943461;28;84153;-56
2023/03/03 11:06:10;;;;;;;79.18;56.35;;;16.30;54.90;;;;;;4939370;28;91473;-56
2023/03/03 11:08:52;;;;;;;81.55;55.90;;;16.40;54.60;;;;;;4933531;28;86890;-57
2023/03/03 11:11:30;;;;;;;83.65;55.65;;;16.60;54.70;;;;;;4937662;28;86041;-57
2023/03/03 11:14:00;;;;;;;77.93;55.92;;;16.80;53.60;;;;;;4936867;28;89415;-53
2023/03/03 11:16:34;;;;;;;81.35;55.85;;;17.00;53.70;;;;;;4941961;28;89715;-55
2023/03/03 11:19:19;;;;;;;82.70;55.85;;;17.10;53.80;;;;;;4934613;28;85955;-52
2023/03/03 11:22:00;;;;;;;80.10;55.47;;;17.10;53.60;;;;;;4937746;28;87108;-57
2023/03/03 11:24:33;;;;;;;78.50;55.05;;;17.20;53.40;;;;;;4950737;28;86206;-55
2023/03/03 11:27:08;;;;;;;80.50;55.17;;;17.30;53.50;;;;;;4934131;28;87082;-54
2023/03/03 11:29:54;;;;;;;76.05;55.15;;;17.40;53.20;;;;;;4939007;28;87011;-55
2023/03/03 11:32:23;;;;;;;80.93;55.65;;;17.40;53.70;;;;;;4947244;28;88125;-61
2023/03/03 11:35:21;;;;;;;79.88;54.58;;;17.50;53.90;;;;;;4951856;28;86347;-57
2023/03/03 11:38:28;;;;;;;76.63;54.55;;;17.40;54.30;;;;;;4936961;28;86803;-56
2023/03/03 11:41:03;;;;;;;77.65;54.42;;;17.60;54.00;;;;;;4938893;28;87971;-57
2023/03/03 11:43:46;;;;;;;77.32;55.45;;;17.60;53.70;;;;;;4938121;28;91320;-57
2023/03/03 11:46:16;;;;;;;79.05;54.47;;;17.60;53.90;;;;;;4947961;28;86974;-56
2023/03/03 11:48:51;;;;;;;79.05;55.45;;;17.70;54.10;;;;;;4940478;28;88372;-57
2023/03/03 11:51:42;;;;;;;79.43;54.90;;;17.60;53.40;;;;;;4945087;28;93219;-58
2023/03/03 11:54:15;;;;;;;84.43;54.90;;;17.70;54.10;;;;;;4941399;28;86580;-54
2023/03/03 11:56:46;;;;;;;78.82;54.22;;;17.90;54.20;;;;;;4932863;28;97876;-57
2023/03/03 11:59:22;;;;;;;81.68;53.80;;;18.00;53.30;;;;;;4932508;28;86943;-58
2023/03/03 12:01:58;;;;;;;81.00;54.63;;;18.10;53.20;;;;;;4941665;28;86143;-59
2023/03/03 12:04:38;;;;;;;82.25;55.20;;;18.20;53.00;;;;;;4937913;28;85711;-58
2023/03/03 12:07:25;;;;;;;83.03;55.40;;;18.30;52.30;;;;;;4934323;28;86407;-53
2023/03/03 12:10:58;;;;;;;82.18;55.22;;;18.30;51.40;;;;;;4962786;28;86099;-52
2023/03/03 12:13:35;;;;;;;81.75;54.65;;;18.40;52.10;;;;;;4942336;28;86777;-54
2023/03/03 12:16:29;;;;;;;80.15;55.10;;;18.50;51.70;;;;;;4941347;28;86319;-53
2023/03/03 12:19:04;;;;;;;81.10;54.05;;;18.70;51.40;;;;;;4949281;28;89760;-66
2023/03/03 12:21:30;;;;;;;82.22;54.10;;;18.80;51.10;;;;;;4959656;28;85771;-52
2023/03/03 12:24:23;;;;;;;80.07;54.33;;;18.90;50.80;;;;;;4946242;28;90551;-52
2023/03/03 12:27:21;;;;;;;77.05;54.28;;;18.90;50.80;;;;;;4945868;28;85385;-58
2023/03/03 12:30:14;;;;;;;82.10;54.97;;;18.90;50.80;;;;;;4945169;28;88270;-59
2023/03/03 12:32:51;;;;;;;78.45;54.10;;;18.90;50.80;;;;;;4945583;28;85468;-56
2023/03/03 12:35:33;;;;;;;77.20;53.88;;;19.00;50.60;;;;;;4937430;28;86981;-59
2023/03/03 12:38:11;;;;;;;78.65;54.00;;;19.00;50.50;;;;;;4938580;28;91650;-57
2023/03/03 12:40:58;;;;;;;75.75;54.00;;;19.10;50.80;;;;;;4947201;28;85491;-59
2023/03/03 12:43:46;;;;;;;77.85;54.00;;;19.10;50.40;;;;;;4944423;28;86125;-50
2023/03/03 12:47:10;;;;;;;79.40;53.80;;;19.10;50.20;;;;;;4923639;28;88405;-57
2023/03/03 12:49:48;;;;;;;77.32;53.40;;;19.10;50.70;;;;;;4916781;28;85915;-51
2023/03/03 12:52:28;;;;;;;78.65;53.50;;;19.20;50.60;;;;;;4943469;28;85366;-58
2023/03/03 12:55:21;;;;;;;77.40;53.42;;;19.20;50.90;;;;;;4937656;28;85728;-57
2023/03/03 12:58:08;;;;;;;77.45;53.58;;;19.20;50.70;;;;;;4938735;28;86289;-56